Time;durP1;ratioP1;P1;durP2;ratioP2;P2;SDS_P1;SDS_P2;PMS_P1;PMS_P2;Temp;Humidity;BMP_temperature;BMP_pressure;BME280_temperature;BME280_humidity;BME280_pressure;Samples;Min_cycle;Max_cycle;Signal;HPM_P1;HPM_P2
2021/10/23 00:01:03;;;;;;;10.93;3.23;;;;;;;;;;5089493;28;20024;-61
2021/10/23 00:03:30;;;;;;;11.43;3.40;;;;;;;;;;5087536;28;20028;-61
2021/10/23 00:05:57;;;;;;;8.27;3.93;;;;;;;;;;5087526;28;20032;-61
2021/10/23 00:08:24;;;;;;;6.37;2.77;;;;;;;;;;5088026;28;20077;-60
2021/10/23 00:10:51;;;;;;;7.70;2.77;;;;;;;;;;5090685;28;20032;-60
2021/10/23 00:13:17;;;;;;;7.53;3.13;;;;;;;;;;5093089;28;20024;-60
2021/10/23 00:15:44;;;;;;;6.97;2.90;;;;;;;;;;5092877;28;20027;-60
2021/10/23 00:18:11;;;;;;;4.13;2.27;;;;;;;;;;5092955;28;20024;-60
2021/10/23 00:20:38;;;;;;;6.83;2.17;;;;;;;;;;5092891;28;20047;-60
2021/10/23 00:23:05;;;;;;;3.10;1.90;;;;;;;;;;5089786;28;20623;-60
2021/10/23 00:25:31;;;;;;;4.27;1.90;;;;;;;;;;5087652;28;20060;-60
2021/10/23 00:27:58;;;;;;;3.60;1.60;;;;;;;;;;5087352;28;20043;-60
2021/10/23 00:30:25;;;;;;;4.13;1.90;;;;;;;;;;5087459;28;20020;-60
2021/10/23 00:32:54;;;;;;;3.87;1.77;;;;;;;;;;5089771;28;20095;-59
2021/10/23 00:35:21;;;;;;;3.63;1.73;;;;;;;;;;5092184;28;20039;-60
2021/10/23 00:37:48;;;;;;;3.50;1.80;;;;;;;;;;5092756;28;20475;-60
2021/10/23 00:40:14;;;;;;;4.77;2.07;;;;;;;;;;5092160;28;20031;-60
2021/10/23 00:42:41;;;;;;;5.77;3.00;;;;;;;;;;5092737;28;20024;-59
2021/10/23 00:45:08;;;;;;;4.40;2.10;;;;;;;;;;5090044;28;20606;-59
2021/10/23 00:47:35;;;;;;;4.23;2.13;;;;;;;;;;5086774;28;20035;-60
2021/10/23 00:50:03;;;;;;;4.07;2.10;;;;;;;;;;5086711;28;20028;-60
2021/10/23 00:52:30;;;;;;;3.07;1.97;;;;;;;;;;5086706;28;20024;-60
2021/10/23 00:54:57;;;;;;;4.40;1.83;;;;;;;;;;5088811;28;20475;-59
2021/10/23 00:57:24;;;;;;;5.10;1.83;;;;;;;;;;5092394;28;20048;-59
2021/10/23 00:59:51;;;;;;;6.30;2.53;;;;;;;;;;5091732;28;20063;-60
2021/10/23 01:02:18;;;;;;;4.60;1.90;;;;;;;;;;5092391;28;20028;-60
2021/10/23 01:04:44;;;;;;;3.30;1.83;;;;;;;;;;5092373;28;20031;-59
2021/10/23 01:07:11;;;;;;;2.97;1.70;;;;;;;;;;5090405;28;20479;-60
2021/10/23 01:09:40;;;;;;;3.13;1.57;;;;;;;;;;5086408;28;20031;-60
2021/10/23 01:12:11;;;;;;;5.53;2.10;;;;;;;;;;5086595;28;20032;-60
2021/10/23 01:14:37;;;;;;;3.50;1.70;;;;;;;;;;5086856;28;20024;-60
2021/10/23 01:17:04;;;;;;;3.07;1.50;;;;;;;;;;5088107;28;20039;-60
2021/10/23 01:19:31;;;;;;;3.00;1.40;;;;;;;;;;5092263;28;20103;-60
2021/10/23 01:21:58;;;;;;;3.80;2.20;;;;;;;;;;5092156;28;20478;-60
2021/10/23 01:24:25;;;;;;;2.83;1.80;;;;;;;;;;5091583;28;20024;-59
2021/10/23 01:26:52;;;;;;;3.60;1.77;;;;;;;;;;5092139;28;20040;-59
2021/10/23 01:29:19;;;;;;;3.87;1.90;;;;;;;;;;5090769;28;20037;-60
2021/10/23 01:31:47;;;;;;;4.83;2.17;;;;;;;;;;5086587;28;20028;-60
2021/10/23 01:34:18;;;;;;;4.70;2.17;;;;;;;;;;5086783;28;20816;-59
2021/10/23 01:36:46;;;;;;;4.20;2.03;;;;;;;;;;5086350;28;20032;-60
2021/10/23 01:39:13;;;;;;;2.37;1.37;;;;;;;;;;5087156;28;20020;-60
2021/10/23 01:41:40;;;;;;;3.00;1.37;;;;;;;;;;5091867;28;20047;-60
2021/10/23 01:44:11;;;;;;;2.17;1.30;;;;;;;;;;5091928;28;20032;-59
2021/10/23 01:46:38;;;;;;;1.63;1.03;;;;;;;;;;5091929;28;20084;-60
2021/10/23 01:49:05;;;;;;;1.83;1.00;;;;;;;;;;5091759;28;20017;-60
2021/10/23 01:51:33;;;;;;;3.50;1.60;;;;;;;;;;5091128;28;20157;-59
2021/10/23 01:54:02;;;;;;;3.40;1.80;;;;;;;;;;5086451;28;20024;-60
2021/10/23 01:56:29;;;;;;;3.13;1.97;;;;;;;;;;5086085;28;20027;-60
2021/10/23 01:58:56;;;;;;;3.27;1.83;;;;;;;;;;5085019;28;20023;-61
2021/10/23 02:01:23;;;;;;;4.17;1.90;;;;;;;;;;5085223;28;20035;-59
2021/10/23 02:03:50;;;;;;;3.20;1.90;;;;;;;;;;5090403;28;20487;-60
2021/10/23 02:06:17;;;;;;;8.47;4.87;;;;;;;;;;5091587;28;20526;-59
2021/10/23 02:08:43;;;;;;;4.77;2.83;;;;;;;;;;5091726;28;20023;-59
2021/10/23 02:11:10;;;;;;;10.53;6.67;;;;;;;;;;5092295;28;20074;-59
2021/10/23 02:13:37;;;;;;;14.10;8.60;;;;;;;;;;5095010;28;20104;-59
2021/10/23 02:16:04;;;;;;;10.77;6.53;;;;;;;;;;5090069;28;20032;-59
2021/10/23 02:18:31;;;;;;;10.13;3.77;;;;;;;;;;5090074;28;20031;-59
2021/10/23 02:20:58;;;;;;;4.20;2.50;;;;;;;;;;5090050;28;20086;-60
2021/10/23 02:23:25;;;;;;;3.80;2.23;;;;;;;;;;5089568;28;20107;-59
2021/10/23 02:25:52;;;;;;;4.13;2.27;;;;;;;;;;5094738;28;20028;-60
2021/10/23 02:28:19;;;;;;;4.00;2.40;;;;;;;;;;5095142;28;20494;-59
2021/10/23 02:30:46;;;;;;;3.90;2.40;;;;;;;;;;5095330;28;20136;-59
2021/10/23 02:33:13;;;;;;;11.93;5.53;;;;;;;;;;5095199;28;20024;-60
2021/10/23 02:35:40;;;;;;;18.10;8.17;;;;;;;;;;5095098;28;20033;-59
2021/10/23 02:38:06;;;;;;;7.20;3.33;;;;;;;;;;5089662;28;20055;-59
2021/10/23 02:40:33;;;;;;;4.43;2.20;;;;;;;;;;5089598;28;20028;-59
2021/10/23 02:43:00;;;;;;;19.50;9.20;;;;;;;;;;5089490;28;20020;-60
2021/10/23 02:45:27;;;;;;;30.33;15.47;;;;;;;;;;5089342;28;20020;-59
2021/10/23 02:47:54;;;;;;;15.53;7.23;;;;;;;;;;5094226;28;20501;-59
2021/10/23 02:50:21;;;;;;;14.03;8.43;;;;;;;;;;5094877;28;20032;-59
2021/10/23 02:52:47;;;;;;;15.10;8.77;;;;;;;;;;5094627;28;20028;-59
2021/10/23 02:55:15;;;;;;;8.90;4.23;;;;;;;;;;5094841;28;20475;-59
2021/10/23 02:57:41;;;;;;;5.80;3.13;;;;;;;;;;5094761;28;20028;-59
2021/10/23 03:00:09;;;;;;;3.07;1.70;;;;;;;;;;5089187;28;20020;-59
2021/10/23 03:02:36;;;;;;;2.87;1.10;;;;;;;;;;5088908;28;20518;-59
2021/10/23 03:05:03;;;;;;;1.63;0.83;;;;;;;;;;5089268;28;20174;-59
2021/10/23 03:07:33;;;;;;;1.57;0.80;;;;;;;;;;5088878;28;20043;-59
2021/10/23 03:10:00;;;;;;;2.20;0.80;;;;;;;;;;5093613;28;20099;-59
2021/10/23 03:12:28;;;;;;;3.90;1.00;;;;;;;;;;5094616;28;20056;-59
2021/10/23 03:14:55;;;;;;;2.17;0.90;;;;;;;;;;5093848;28;20024;-59
2021/10/23 03:17:22;;;;;;;2.27;1.00;;;;;;;;;;5093725;28;20028;-60
2021/10/23 03:19:49;;;;;;;2.33;1.00;;;;;;;;;;5094435;28;20028;-59
2021/10/23 03:22:15;;;;;;;3.83;1.20;;;;;;;;;;5089209;28;20111;-60
2021/10/23 03:24:42;;;;;;;2.83;1.60;;;;;;;;;;5089054;28;20027;-59
2021/10/23 03:27:09;;;;;;;4.00;2.03;;;;;;;;;;5088664;28;20029;-59
2021/10/23 03:29:36;;;;;;;4.93;2.00;;;;;;;;;;5088425;28;20514;-59
2021/10/23 03:32:03;;;;;;;3.83;2.40;;;;;;;;;;5092391;28;20470;-60
2021/10/23 03:34:30;;;;;;;3.77;1.83;;;;;;;;;;5093647;28;20367;-60
2021/10/23 03:36:57;;;;;;;4.00;2.37;;;;;;;;;;5094049;28;20120;-59
2021/10/23 03:39:23;;;;;;;4.73;2.40;;;;;;;;;;5093809;28;20016;-59
2021/10/23 03:41:50;;;;;;;5.93;2.10;;;;;;;;;;5094053;28;20024;-59
2021/10/23 03:44:17;;;;;;;5.93;2.33;;;;;;;;;;5089718;28;20055;-59
2021/10/23 03:46:44;;;;;;;4.23;2.20;;;;;;;;;;5088254;28;20028;-59
2021/10/23 03:49:10;;;;;;;4.13;2.23;;;;;;;;;;5088364;28;20020;-59
2021/10/23 03:51:37;;;;;;;4.13;2.20;;;;;;;;;;5088254;28;20028;-59
2021/10/23 03:54:04;;;;;;;3.07;1.60;;;;;;;;;;5091910;28;20023;-59
2021/10/23 03:56:31;;;;;;;4.77;1.70;;;;;;;;;;5093405;28;20084;-59
2021/10/23 03:58:57;;;;;;;4.47;1.47;;;;;;;;;;5093386;28;20019;-59
2021/10/23 04:01:24;;;;;;;4.30;1.50;;;;;;;;;;5093176;28;20106;-59
2021/10/23 04:03:51;;;;;;;4.33;1.47;;;;;;;;;;5093616;28;20032;-59
2021/10/23 04:06:18;;;;;;;3.47;1.50;;;;;;;;;;5089745;28;20864;-59
2021/10/23 04:08:45;;;;;;;3.73;1.40;;;;;;;;;;5088049;28;20023;-59
2021/10/23 04:11:12;;;;;;;5.13;1.80;;;;;;;;;;5087883;28;20109;-59
2021/10/23 04:13:38;;;;;;;4.57;1.23;;;;;;;;;;5087780;28;20081;-59
2021/10/23 04:16:05;;;;;;;5.23;1.50;;;;;;;;;;5090486;28;20031;-59
2021/10/23 04:18:32;;;;;;;3.10;1.40;;;;;;;;;;5093041;28;20095;-59
2021/10/23 04:20:59;;;;;;;2.83;1.53;;;;;;;;;;5093209;28;20082;-59
2021/10/23 04:23:26;;;;;;;4.17;1.63;;;;;;;;;;5092909;28;20026;-59
2021/10/23 04:25:52;;;;;;;1.97;1.03;;;;;;;;;;5093218;28;20020;-59
2021/10/23 04:28:19;;;;;;;2.10;0.97;;;;;;;;;;5090048;28;20031;-59
2021/10/23 04:30:46;;;;;;;2.03;1.10;;;;;;;;;;5087419;28;20070;-59
2021/10/23 04:33:13;;;;;;;2.70;1.13;;;;;;;;;;5087073;28;20027;-59
2021/10/23 04:35:39;;;;;;;2.37;1.10;;;;;;;;;;5087238;28;20020;-59
2021/10/23 04:38:06;;;;;;;1.63;1.00;;;;;;;;;;5090198;28;20081;-59
2021/10/23 04:40:33;;;;;;;3.27;1.30;;;;;;;;;;5092633;28;20059;-59
2021/10/23 04:43:00;;;;;;;2.30;1.20;;;;;;;;;;5092869;28;20080;-59
2021/10/23 04:45:26;;;;;;;2.20;1.00;;;;;;;;;;5092606;28;20024;-59
2021/10/23 04:47:53;;;;;;;3.30;1.17;;;;;;;;;;5092645;28;20032;-60
2021/10/23 04:50:20;;;;;;;4.23;1.30;;;;;;;;;;5089986;28;20028;-59
2021/10/23 04:52:47;;;;;;;2.53;1.00;;;;;;;;;;5086973;28;20038;-59
2021/10/23 04:55:13;;;;;;;2.47;1.10;;;;;;;;;;5087299;28;20028;-59
2021/10/23 04:57:40;;;;;;;2.27;1.27;;;;;;;;;;5084742;28;20680;-58
2021/10/23 05:00:08;;;;;;;2.47;1.13;;;;;;;;;;5087155;28;20028;-59
2021/10/23 05:02:38;;;;;;;4.03;1.10;;;;;;;;;;5090551;28;20020;-60
2021/10/23 05:05:05;;;;;;;6.83;1.10;;;;;;;;;;5091309;28;20020;-60
2021/10/23 05:07:31;;;;;;;2.80;0.93;;;;;;;;;;5092397;28;20040;-60
2021/10/23 05:09:58;;;;;;;3.37;1.37;;;;;;;;;;5092368;28;20036;-59
2021/10/23 05:12:25;;;;;;;3.30;1.20;;;;;;;;;;5089768;28;20070;-61
2021/10/23 05:14:52;;;;;;;3.20;1.37;;;;;;;;;;5086950;28;20085;-61
2021/10/23 05:17:18;;;;;;;5.40;1.60;;;;;;;;;;5087045;28;20024;-61
2021/10/23 05:19:45;;;;;;;3.53;1.33;;;;;;;;;;5086769;28;20387;-60
2021/10/23 05:22:12;;;;;;;3.20;1.50;;;;;;;;;;5088716;28;20537;-60
2021/10/23 05:24:39;;;;;;;3.20;1.10;;;;;;;;;;5092259;28;20528;-61
2021/10/23 05:27:05;;;;;;;1.97;1.30;;;;;;;;;;5092388;28;20048;-60
2021/10/23 05:29:32;;;;;;;6.57;1.00;;;;;;;;;;5092288;28;20093;-60
2021/10/23 05:31:59;;;;;;;4.47;1.30;;;;;;;;;;5092230;28;20122;-60
2021/10/23 05:34:26;;;;;;;3.00;1.23;;;;;;;;;;5090102;28;20103;-61
2021/10/23 05:36:53;;;;;;;2.13;1.07;;;;;;;;;;5086412;28;20412;-61
2021/10/23 05:39:20;;;;;;;4.93;1.60;;;;;;;;;;5086750;28;20032;-60
2021/10/23 05:41:47;;;;;;;2.10;1.00;;;;;;;;;;5086459;28;20025;-60
2021/10/23 05:44:13;;;;;;;3.17;1.53;;;;;;;;;;5088047;28;20035;-60
2021/10/23 05:46:40;;;;;;;1.93;1.20;;;;;;;;;;5095080;28;20028;-60
2021/10/23 05:49:07;;;;;;;3.77;1.70;;;;;;;;;;5095807;28;20028;-60
2021/10/23 05:51:34;;;;;;;3.30;1.50;;;;;;;;;;5095623;28;20109;-60
2021/10/23 05:54:01;;;;;;;2.47;1.10;;;;;;;;;;5096144;28;20019;-60
2021/10/23 05:56:27;;;;;;;4.97;2.00;;;;;;;;;;5094388;28;20107;-61
2021/10/23 05:58:59;;;;;;;5.43;1.80;;;;;;;;;;5090525;28;20095;-60
2021/10/23 06:01:27;;;;;;;2.43;1.47;;;;;;;;;;5090400;28;20157;-60
2021/10/23 06:03:53;;;;;;;3.27;1.63;;;;;;;;;;5090606;28;20024;-60
2021/10/23 06:06:20;;;;;;;3.07;1.50;;;;;;;;;;5090905;28;20032;-60
2021/10/23 06:08:47;;;;;;;3.77;1.57;;;;;;;;;;5095372;28;20131;-61
2021/10/23 06:11:14;;;;;;;4.63;1.30;;;;;;;;;;5095688;28;20729;-60
2021/10/23 06:13:40;;;;;;;3.53;1.63;;;;;;;;;;5095810;28;20035;-60
2021/10/23 06:16:07;;;;;;;2.83;1.70;;;;;;;;;;5095762;28;20020;-60
2021/10/23 06:18:34;;;;;;;3.17;1.50;;;;;;;;;;5093993;28;20527;-60
2021/10/23 06:21:01;;;;;;;3.20;1.60;;;;;;;;;;5089944;28;20027;-60
2021/10/23 06:23:30;;;;;;;3.67;1.67;;;;;;;;;;5090075;28;20073;-60
2021/10/23 06:25:58;;;;;;;3.77;1.70;;;;;;;;;;5090086;28;20035;-61
2021/10/23 06:28:24;;;;;;;3.00;1.57;;;;;;;;;;5090899;28;20032;-60
2021/10/23 06:30:51;;;;;;;4.37;1.47;;;;;;;;;;5095287;28;20052;-60
2021/10/23 06:33:21;;;;;;;2.30;1.33;;;;;;;;;;5094904;28;20425;-61
2021/10/23 06:35:48;;;;;;;4.33;1.47;;;;;;;;;;5094996;28;20024;-60
2021/10/23 06:38:15;;;;;;;2.00;1.20;;;;;;;;;;5094844;28;20024;-60
2021/10/23 06:40:42;;;;;;;2.57;1.20;;;;;;;;;;5093836;28;20024;-60
2021/10/23 06:43:11;;;;;;;6.73;1.70;;;;;;;;;;5089771;28;20090;-60
2021/10/23 06:45:37;;;;;;;3.73;1.63;;;;;;;;;;5089804;28;20019;-61
2021/10/23 06:48:05;;;;;;;5.57;1.50;;;;;;;;;;5089777;28;20024;-60
2021/10/23 06:50:31;;;;;;;2.77;1.70;;;;;;;;;;5089606;28;20024;-60
2021/10/23 06:52:58;;;;;;;1.23;1.00;;;;;;;;;;5095012;28;20099;-61
2021/10/23 06:55:25;;;;;;;3.53;1.50;;;;;;;;;;5095180;28;20028;-60
2021/10/23 06:57:52;;;;;;;2.87;1.50;;;;;;;;;;5093676;28;20478;-61
2021/10/23 07:00:19;;;;;;;3.37;1.20;;;;;;;;;;5094885;28;20375;-60
2021/10/23 07:02:46;;;;;;;2.87;1.20;;;;;;;;;;5093847;28;20024;-60
2021/10/23 07:05:13;;;;;;;3.37;1.27;;;;;;;;;;5089128;28;20028;-60
2021/10/23 07:07:40;;;;;;;5.30;1.50;;;;;;;;;;5089310;28;20387;-60
2021/10/23 07:10:08;;;;;;;2.00;1.30;;;;;;;;;;5089256;28;20055;-60
2021/10/23 07:12:34;;;;;;;2.60;1.33;;;;;;;;;;5089018;28;20364;-60
2021/10/23 07:15:01;;;;;;;3.17;1.40;;;;;;;;;;5094552;28;20020;-61
2021/10/23 07:17:29;;;;;;;4.40;1.80;;;;;;;;;;5094485;28;20020;-61
2021/10/23 07:19:56;;;;;;;2.53;1.50;;;;;;;;;;5094291;28;20085;-61
2021/10/23 07:22:23;;;;;;;5.20;1.93;;;;;;;;;;5093590;28;20024;-60
2021/10/23 07:24:50;;;;;;;3.90;1.40;;;;;;;;;;5093815;28;20020;-60
2021/10/23 07:27:16;;;;;;;3.80;1.60;;;;;;;;;;5088892;28;20142;-60
2021/10/23 07:29:43;;;;;;;7.17;1.80;;;;;;;;;;5088860;28;20023;-60
2021/10/23 07:32:10;;;;;;;1.77;1.17;;;;;;;;;;5088879;28;20016;-60
2021/10/23 07:34:37;;;;;;;7.37;1.80;;;;;;;;;;5088697;28;20048;-60
2021/10/23 07:37:04;;;;;;;4.53;1.40;;;;;;;;;;5093821;28;20020;-61
2021/10/23 07:39:31;;;;;;;3.03;1.63;;;;;;;;;;5093976;28;20081;-60
2021/10/23 07:41:57;;;;;;;2.70;1.37;;;;;;;;;;5093995;28;20027;-60
2021/10/23 07:44:24;;;;;;;2.57;1.57;;;;;;;;;;5093507;28;20024;-61
2021/10/23 07:46:51;;;;;;;3.53;2.30;;;;;;;;;;5093705;28;20041;-60
2021/10/23 07:49:18;;;;;;;4.53;1.70;;;;;;;;;;5088354;28;20044;-60
2021/10/23 07:51:45;;;;;;;2.77;1.43;;;;;;;;;;5088338;28;20035;-61
2021/10/23 07:54:11;;;;;;;3.37;1.50;;;;;;;;;;5088433;28;20020;-60
2021/10/23 07:56:39;;;;;;;7.53;1.50;;;;;;;;;;5088321;28;20032;-60
2021/10/23 07:59:06;;;;;;;6.00;1.60;;;;;;;;;;5093013;28;20375;-60
2021/10/23 08:01:33;;;;;;;9.10;1.80;;;;;;;;;;5093797;28;20036;-60
2021/10/23 08:04:00;;;;;;;4.80;1.70;;;;;;;;;;5093550;28;20028;-60
2021/10/23 08:06:27;;;;;;;3.77;1.73;;;;;;;;;;5093206;28;20071;-60
2021/10/23 08:08:54;;;;;;;4.93;1.83;;;;;;;;;;5091748;28;20032;-60
2021/10/23 08:11:22;;;;;;;4.57;1.93;;;;;;;;;;5088265;28;20032;-60
2021/10/23 08:13:49;;;;;;;5.37;1.93;;;;;;;;;;5087800;28;20080;-60
2021/10/23 08:16:16;;;;;;;4.80;1.53;;;;;;;;;;5087702;28;20035;-61
2021/10/23 08:18:42;;;;;;;6.57;1.40;;;;;;;;;;5087931;28;20020;-61
2021/10/23 08:21:09;;;;;;;6.10;1.70;;;;;;;;;;5092208;28;20024;-60
2021/10/23 08:23:36;;;;;;;2.03;1.33;;;;;;;;;;5092781;28;20130;-60
2021/10/23 08:26:03;;;;;;;5.53;1.87;;;;;;;;;;5093115;28;20031;-60
2021/10/23 08:28:29;;;;;;;3.23;1.43;;;;;;;;;;5093142;28;20052;-60
2021/10/23 08:30:56;;;;;;;6.47;1.53;;;;;;;;;;5092787;28;20020;-60
2021/10/23 08:33:23;;;;;;;2.20;1.60;;;;;;;;;;5088082;28;20543;-60
2021/10/23 08:35:50;;;;;;;9.47;2.03;;;;;;;;;;5087677;28;20031;-60
2021/10/23 08:38:17;;;;;;;3.17;1.50;;;;;;;;;;5087438;28;20027;-60
2021/10/23 08:40:43;;;;;;;3.17;1.60;;;;;;;;;;5087330;28;20020;-60
2021/10/23 08:43:10;;;;;;;6.93;1.77;;;;;;;;;;5091612;28;20153;-60
2021/10/23 08:45:41;;;;;;;5.37;1.63;;;;;;;;;;5092524;28;20028;-61
2021/10/23 08:48:08;;;;;;;7.60;1.90;;;;;;;;;;5092866;28;20032;-60
2021/10/23 08:50:35;;;;;;;6.17;1.80;;;;;;;;;;5092821;28;20020;-60
2021/10/23 08:53:02;;;;;;;2.87;1.63;;;;;;;;;;5092457;28;20478;-60
2021/10/23 08:55:29;;;;;;;5.47;1.30;;;;;;;;;;5087631;28;20498;-60
2021/10/23 08:57:56;;;;;;;3.63;1.37;;;;;;;;;;5087213;28;20109;-60
2021/10/23 09:00:23;;;;;;;1.77;1.10;;;;;;;;;;5087317;28;20055;-60
2021/10/23 09:02:50;;;;;;;3.50;1.20;;;;;;;;;;5087122;28;20394;-61
2021/10/23 09:05:16;;;;;;;3.20;1.40;;;;;;;;;;5090525;28;20027;-61
2021/10/23 09:07:48;;;;;;;3.97;2.10;;;;;;;;;;5092442;28;20036;-60
2021/10/23 09:10:22;;;;;;;3.10;1.47;;;;;;;;;;5092282;28;20020;-60
2021/10/23 09:12:58;;;;;;;2.90;1.15;;;;;;;;;;5092355;28;20030;-60
2021/10/23 09:15:25;;;;;;;2.97;1.63;;;;;;;;;;5092340;28;20042;-61
2021/10/23 09:17:52;;;;;;;3.37;1.50;;;;;;;;;;5087045;28;20028;-60
2021/10/23 09:20:20;;;;;;;8.20;2.23;;;;;;;;;;5086289;28;20103;-60
2021/10/23 09:22:50;;;;;;;4.07;1.77;;;;;;;;;;5086725;28;20048;-60
2021/10/23 09:25:29;;;;;;;4.00;1.57;;;;;;;;;;5087050;28;20020;-60
2021/10/23 09:28:06;;;;;;;6.23;1.40;;;;;;;;;;5091871;28;20398;-60
2021/10/23 09:30:39;;;;;;;4.87;1.50;;;;;;;;;;5091852;28;20020;-60
2021/10/23 09:33:07;;;;;;;2.97;1.60;;;;;;;;;;5092313;28;20752;-61
2021/10/23 09:35:35;;;;;;;2.57;1.40;;;;;;;;;;5092068;28;20118;-61
2021/10/23 09:38:02;;;;;;;3.73;1.33;;;;;;;;;;5091816;28;20055;-61
2021/10/23 09:40:30;;;;;;;2.43;1.20;;;;;;;;;;5086573;28;20027;-61
2021/10/23 09:43:16;;;;;;;1.17;0.77;;;;;;;;;;5086903;28;20479;-60
2021/10/23 09:46:03;;;;;;;4.73;1.07;;;;;;;;;;5086247;28;20112;-60
2021/10/23 09:48:48;;;;;;;4.47;1.00;;;;;;;;;;5087721;28;20506;-60
2021/10/23 09:51:27;;;;;;;3.97;1.10;;;;;;;;;;5092143;28;20119;-60
2021/10/23 09:53:53;;;;;;;6.03;1.20;;;;;;;;;;5092020;28;20375;-60
2021/10/23 09:56:24;;;;;;;4.13;1.00;;;;;;;;;;5092059;28;20058;-60
2021/10/23 09:59:04;;;;;;;3.90;0.80;;;;;;;;;;5091946;28;20024;-60
2021/10/23 10:01:32;;;;;;;3.47;0.87;;;;;;;;;;5088974;28;20024;-60
2021/10/23 10:04:04;;;;;;;3.50;1.00;;;;;;;;;;5086406;28;20070;-60
2021/10/23 10:06:34;;;;;;;2.47;0.90;;;;;;;;;;5086450;28;20039;-60
2021/10/23 10:09:02;;;;;;;2.27;0.60;;;;;;;;;;5086417;28;20017;-60
2021/10/23 10:11:29;;;;;;;3.53;0.33;;;;;;;;;;5089027;28;20039;-60
2021/10/23 10:13:56;;;;;;;1.70;0.60;;;;;;;;;;5091741;28;20043;-61
2021/10/23 10:16:25;;;;;;;2.67;1.07;;;;;;;;;;5091949;28;20016;-60
2021/10/23 10:18:53;;;;;;;3.70;0.40;;;;;;;;;;5091836;28;20024;-60
2021/10/23 10:21:21;;;;;;;1.30;0.33;;;;;;;;;;5091710;28;20095;-60
2021/10/23 10:23:49;;;;;;;1.60;0.53;;;;;;;;;;5088484;28;20081;-61
2021/10/23 10:26:15;;;;;;;4.03;0.60;;;;;;;;;;5086108;28;20026;-60
2021/10/23 10:29:01;;;;;;;3.87;0.67;;;;;;;;;;5086380;28;20020;-60
2021/10/23 10:31:46;;;;;;;4.85;0.50;;;;;;;;;;5085956;28;20082;-60
2021/10/23 10:34:17;;;;;;;2.33;0.83;;;;;;;;;;5093968;28;20102;-60
2021/10/23 10:37:12;;;;;;;2.03;0.40;;;;;;;;;;5094958;28;20074;-61
2021/10/23 10:40:03;;;;;;;2.90;0.60;;;;;;;;;;5079928;28;20062;-61
2021/10/23 10:42:50;;;;;;;4.33;0.50;;;;;;;;;;5095471;28;20025;-60
2021/10/23 10:45:31;;;;;;;4.20;0.70;;;;;;;;;;5093046;28;20039;-61
2021/10/23 10:48:09;;;;;;;2.43;0.70;;;;;;;;;;5089628;28;20032;-60
2021/10/23 10:50:38;;;;;;;2.80;0.43;;;;;;;;;;5089628;28;20370;-60
2021/10/23 10:53:19;;;;;;;0.90;0.30;;;;;;;;;;5089682;28;20028;-60
2021/10/23 10:55:48;;;;;;;0.67;0.33;;;;;;;;;;5091895;28;20028;-61
2021/10/23 10:58:16;;;;;;;1.57;0.50;;;;;;;;;;5095098;28;20020;-60
2021/10/23 11:00:46;;;;;;;4.17;0.77;;;;;;;;;;5094777;28;20051;-60
2021/10/23 11:03:31;;;;;;;2.20;0.50;;;;;;;;;;5094841;28;20020;-60
2021/10/23 11:05:59;;;;;;;2.47;0.47;;;;;;;;;;5094775;28;20474;-60
2021/10/23 11:08:26;;;;;;;7.30;0.63;;;;;;;;;;5090600;28;20028;-61
2021/10/23 11:10:57;;;;;;;3.80;0.50;;;;;;;;;;5089128;28;20378;-60
2021/10/23 11:13:43;;;;;;;1.37;0.40;;;;;;;;;;5088986;28;20036;-60
2021/10/23 11:16:26;;;;;;;1.30;0.50;;;;;;;;;;5088906;28;20099;-60
2021/10/23 11:18:54;;;;;;;4.93;0.70;;;;;;;;;;5093429;28;20028;-60
2021/10/23 11:21:21;;;;;;;2.67;0.77;;;;;;;;;;5094065;28;20032;-61
2021/10/23 11:23:52;;;;;;;3.10;0.70;;;;;;;;;;5094477;28;20026;-60
2021/10/23 11:26:20;;;;;;;2.93;0.80;;;;;;;;;;5094009;28;20016;-60
2021/10/23 11:28:47;;;;;;;2.77;0.60;;;;;;;;;;5094020;28;20097;-61
2021/10/23 11:31:17;;;;;;;3.33;0.60;;;;;;;;;;5088913;28;20039;-61
2021/10/23 11:33:44;;;;;;;2.83;0.80;;;;;;;;;;5088739;28;20141;-60
2021/10/23 11:36:15;;;;;;;1.70;1.27;;;;;;;;;;5088852;28;20059;-61
2021/10/23 11:38:47;;;;;;;6.63;0.90;;;;;;;;;;5088447;28;20520;-60
2021/10/23 11:41:13;;;;;;;3.63;1.00;;;;;;;;;;5093318;28;20046;-60
2021/10/23 11:43:41;;;;;;;2.83;0.73;;;;;;;;;;5093598;28;20437;-61
2021/10/23 11:46:13;;;;;;;4.07;1.00;;;;;;;;;;5093873;28;20035;-60
2021/10/23 11:48:40;;;;;;;4.43;0.70;;;;;;;;;;5093984;28;20503;-61
2021/10/23 11:51:07;;;;;;;3.57;0.67;;;;;;;;;;5093771;28;20026;-60
2021/10/23 11:53:34;;;;;;;2.20;0.40;;;;;;;;;;5088167;28;20093;-60
2021/10/23 11:56:01;;;;;;;0.50;0.30;;;;;;;;;;5088266;28;20032;-60
2021/10/23 11:58:29;;;;;;;1.20;0.47;;;;;;;;;;5088252;28;20024;-60
2021/10/23 12:01:08;;;;;;;0.67;0.37;;;;;;;;;;5088273;28;20049;-60
2021/10/23 12:03:36;;;;;;;0.60;0.47;;;;;;;;;;5093376;28;20475;-60
2021/10/23 12:06:15;;;;;;;2.03;0.40;;;;;;;;;;5092969;28;20058;-61
2021/10/23 12:08:42;;;;;;;1.67;0.40;;;;;;;;;;5093505;28;20035;-60
2021/10/23 12:11:09;;;;;;;2.37;0.40;;;;;;;;;;5093456;28;20026;-60
2021/10/23 12:13:55;;;;;;;1.70;0.30;;;;;;;;;;5092521;28;20032;-61
2021/10/23 12:16:29;;;;;;;2.83;0.30;;;;;;;;;;5087845;28;20020;-60
2021/10/23 12:19:03;;;;;;;0.87;0.20;;;;;;;;;;5087500;28;20058;-60
2021/10/23 12:21:37;;;;;;;1.73;0.50;;;;;;;;;;5087932;28;20024;-60
2021/10/23 12:24:18;;;;;;;2.70;0.57;;;;;;;;;;5088992;28;20024;-60
2021/10/23 12:26:59;;;;;;;0.80;0.27;;;;;;;;;;5093027;28;20281;-60
2021/10/23 12:29:40;;;;;;;1.27;0.50;;;;;;;;;;5093021;28;20073;-61
2021/10/23 12:32:08;;;;;;;1.90;0.70;;;;;;;;;;5093296;28;20024;-60
2021/10/23 12:34:50;;;;;;;2.63;0.70;;;;;;;;;;5093205;28;20024;-60
2021/10/23 12:37:29;;;;;;;1.90;0.87;;;;;;;;;;5088619;28;20483;-61
2021/10/23 12:40:04;;;;;;;2.73;0.70;;;;;;;;;;5087292;28;20028;-60
2021/10/23 12:42:31;;;;;;;3.63;0.63;;;;;;;;;;5087050;28;20061;-61
2021/10/23 12:44:57;;;;;;;1.47;0.50;;;;;;;;;;5087400;28;20023;-60
2021/10/23 12:47:24;;;;;;;0.83;0.60;;;;;;;;;;5091316;28;20032;-61
2021/10/23 12:49:51;;;;;;;2.20;0.53;;;;;;;;;;5092915;28;20049;-60
2021/10/23 12:52:18;;;;;;;2.87;0.70;;;;;;;;;;5092808;28;20421;-60
2021/10/23 12:54:44;;;;;;;1.33;0.73;;;;;;;;;;5091705;28;20475;-60
2021/10/23 12:57:11;;;;;;;2.40;0.50;;;;;;;;;;5092592;28;20478;-60
2021/10/23 12:59:38;;;;;;;3.43;0.73;;;;;;;;;;5087928;28;20470;-61
2021/10/23 13:02:05;;;;;;;2.97;0.67;;;;;;;;;;5087255;28;20482;-60
2021/10/23 13:04:31;;;;;;;1.27;0.70;;;;;;;;;;5087237;28;20024;-60
2021/10/23 13:06:58;;;;;;;8.90;5.33;;;;;;;;;;5087094;28;20435;-60
2021/10/23 13:09:25;;;;;;;3.83;2.50;;;;;;;;;;5090852;28;20027;-60
2021/10/23 13:11:52;;;;;;;3.83;2.27;;;;;;;;;;5092091;28;20023;-60
2021/10/23 13:14:22;;;;;;;2.53;1.50;;;;;;;;;;5091984;28;20032;-60
2021/10/23 13:16:48;;;;;;;4.17;2.37;;;;;;;;;;5092541;28;20425;-60
2021/10/23 13:19:15;;;;;;;7.97;3.67;;;;;;;;;;5092527;28;20044;-60
2021/10/23 13:21:42;;;;;;;7.20;3.80;;;;;;;;;;5088214;28;20025;-60
2021/10/23 13:24:09;;;;;;;15.70;8.87;;;;;;;;;;5087082;28;20096;-61
2021/10/23 13:26:36;;;;;;;6.60;4.33;;;;;;;;;;5086380;28;20435;-60
2021/10/23 13:29:03;;;;;;;11.10;3.20;;;;;;;;;;5086964;28;20024;-60
2021/10/23 13:31:30;;;;;;;11.80;2.13;;;;;;;;;;5090302;28;20020;-61
2021/10/23 13:33:58;;;;;;;3.97;1.30;;;;;;;;;;5092208;28;20686;-60
2021/10/23 13:36:25;;;;;;;2.83;1.03;;;;;;;;;;5091955;28;20032;-60
2021/10/23 13:38:51;;;;;;;2.23;1.10;;;;;;;;;;5092229;28;20028;-60
2021/10/23 13:41:18;;;;;;;4.30;2.27;;;;;;;;;;5091403;28;20406;-60
2021/10/23 13:43:45;;;;;;;5.33;2.17;;;;;;;;;;5088185;28;20073;-60
2021/10/23 13:46:12;;;;;;;5.43;2.07;;;;;;;;;;5086898;28;20047;-60
2021/10/23 13:48:39;;;;;;;5.07;2.10;;;;;;;;;;5086549;28;20024;-60
2021/10/23 13:51:05;;;;;;;4.40;2.00;;;;;;;;;;5086897;28;20043;-60
2021/10/23 13:53:32;;;;;;;6.27;2.70;;;;;;;;;;5089719;28;20028;-60
2021/10/23 13:55:59;;;;;;;9.33;2.20;;;;;;;;;;5091839;28;20027;-61
2021/10/23 13:58:26;;;;;;;7.90;3.50;;;;;;;;;;5092136;28;20028;-60
2021/10/23 14:00:52;;;;;;;5.73;2.40;;;;;;;;;;5092088;28;20032;-60
2021/10/23 14:03:21;;;;;;;5.53;2.70;;;;;;;;;;5091750;28;20107;-60
2021/10/23 14:05:48;;;;;;;7.17;3.10;;;;;;;;;;5088082;28;21312;-60
2021/10/23 14:08:15;;;;;;;8.30;3.03;;;;;;;;;;5090753;28;20165;-60
2021/10/23 14:10:42;;;;;;;6.90;4.00;;;;;;;;;;5090378;28;20097;-60
2021/10/23 14:13:09;;;;;;;5.57;3.10;;;;;;;;;;5090164;28;20123;-60
2021/10/23 14:15:36;;;;;;;7.03;3.10;;;;;;;;;;5093083;28;20028;-61
2021/10/23 14:18:03;;;;;;;7.37;3.00;;;;;;;;;;5095477;28;20020;-60
2021/10/23 14:20:30;;;;;;;6.10;3.93;;;;;;;;;;5095720;28;20023;-60
2021/10/23 14:22:57;;;;;;;5.80;3.13;;;;;;;;;;5095546;28;20028;-61
2021/10/23 14:25:28;;;;;;;5.07;3.03;;;;;;;;;;5095458;28;20433;-61
2021/10/23 14:27:57;;;;;;;8.87;3.53;;;;;;;;;;5092211;28;20028;-61
2021/10/23 14:30:25;;;;;;;6.03;3.00;;;;;;;;;;5089753;28;20035;-60
2021/10/23 14:32:52;;;;;;;6.70;3.20;;;;;;;;;;5089895;28;20644;-60
2021/10/23 14:35:19;;;;;;;5.23;2.73;;;;;;;;;;5089244;28;20120;-60
2021/10/23 14:37:46;;;;;;;5.60;2.77;;;;;;;;;;5092574;28;20160;-60
2021/10/23 14:40:13;;;;;;;5.97;3.23;;;;;;;;;;5094822;28;20063;-61
2021/10/23 14:42:40;;;;;;;5.97;3.23;;;;;;;;;;5095319;28;20024;-61
2021/10/23 14:45:07;;;;;;;4.83;3.50;;;;;;;;;;5094738;28;20024;-60
2021/10/23 14:47:34;;;;;;;7.57;4.00;;;;;;;;;;5094823;28;20032;-60
2021/10/23 14:50:01;;;;;;;5.30;3.50;;;;;;;;;;5091758;28;20021;-60